Airfield :
LOGIN :

Register | Disclaimer

   EN    FR    IT 

 










Legend :    VFR   Marginal VFR   IFR   Intensive IFR   Very Intensive IFR
Visi :
Ceiling :
>= 8 km
>= 3000ft
5 to 8 km
1000 to 3000 ft
1500m to 5 km
500 to 1000 ft
800 to 1500m
200 to 500 ft
< 800m
< 200 ft
Symbols :   Thunderstorms  Fog  Heavy snow  Heavy precipitations  Wind > 20 kt
SIGMETs :     Misc.  Thunderstorms  Icing  Turbulence  Mountain Waves  Volcanic Ashes






- Airport Elevation : 348 ft
- IATA code : STN


EGSS - London Stansted

CURRENT METAR :
  • 201150Z AUTO 20021KT 9999 -RA OVC011 10/08 Q0988

EXPIRED METARs :
  • 201120Z AUTO 20021KT 9999 OVC012 10/08 Q0988
  • 201050Z AUTO 20018KT 9999 -RA BKN009 OVC012 10/09 Q0989 RERA REDZ
  • 201020Z AUTO 20019KT 4200 -DZ OVC010 09/09 Q0989
  • 200950Z AUTO 20018KT 4900 -RA OVC009 09/09 Q0990 RERA
  • 200920Z AUTO 20018KT 4500 RA BKN009 OVC012 09/09 Q0990

TAF TAF EGSS
Valid from the 20 at 12:00 until the 21 at 18:00 UTC


201106Z 2012/2118 20016KT 9999 -RA BKN008
TEMPO 2012/2102 21020G30KT 4000 RA
PROB40
TEMPO 2023/2102 18025G40KT +RA
BECMG 2100/2102 25015KT NSW SCT018
TEMPO 2102/2114 24018G28KT
PROB40
TEMPO 2102/2115 5000 SHRA BKN011
ATIS : +44 1279 669 325



MET'MAP, your aeronautical weather chart ! - Copyright ORBIFLY December 2007 - Disclaimer

ORBIFLY MET'MAP TEAM :

Programming & Development : Alexandra Zaïnal
Concept & original design : Baudouin d'Aumeries
Assistance for programming : Marc-Olivier Méhu
Technical & hardware support : Manuel Goepfert

Contact : metmap@orbifly.com




SOURCES & CREDITS :

   NOAA